AAL2721 KSAN-KPHX
Flight info
| Callsign | AAL2721 |
|---|---|
| Flight time | 0h 50m |
| Altitude | 33000 |
| Route | ZZOOO4 HOGGZ HYDRR1 |
| Aircraft | A320/M-SDE3FGHIRWY/LB1 |
Departure
| Time | 2026-04-24 02:50 |
|---|---|
| Airport | San Diego International Airport (KSAN) |
Arrival
| Time | 2026-04-24 03:40 |
|---|---|
| Airport | Phoenix Sky Harbor International Airport (KPHX) |
| Time | Latitude | Longitude | Altitude | Speed | Heading |
|---|---|---|---|---|---|
| 2026-04-24 02:22 | 32.73338 | -117.20188 | 23 ft | 0 kts | 83° |
| 2026-04-24 02:38 | 32.73336 | -117.20201 | 23 ft | 4 kts | 82° |
| 2026-04-24 02:38 | 32.73332 | -117.20233 | 23 ft | 4 kts | 74° |
| 2026-04-24 02:38 | 32.73322 | -117.20258 | 24 ft | 4 kts | 24° |
| 2026-04-24 02:39 | 32.73319 | -117.20263 | 23 ft | 4 kts | 345° |
| 2026-04-24 02:39 | 32.73345 | -117.20272 | 23 ft | 4 kts | 345° |
| 2026-04-24 02:39 | 32.73361 | -117.20276 | 23 ft | 0 kts | 350° |
| 2026-04-24 02:41 | 32.73364 | -117.20276 | 23 ft | 1 kts | 350° |
| 2026-04-24 02:41 | 32.73375 | -117.20278 | 23 ft | 3 kts | 353° |
| 2026-04-24 02:42 | 32.73400 | -117.20275 | 23 ft | 5 kts | 10° |
| 2026-04-24 02:42 | 32.73446 | -117.20261 | 23 ft | 8 kts | 16° |
| 2026-04-24 02:42 | 32.73512 | -117.20237 | 23 ft | 11 kts | 18° |
| 2026-04-24 02:42 | 32.73545 | -117.20170 | 23 ft | 11 kts | 107° |
| 2026-04-24 02:43 | 32.73521 | -117.20076 | 23 ft | 14 kts | 106° |
| 2026-04-24 02:43 | 32.73492 | -117.19955 | 23 ft | 16 kts | 106° |
| 2026-04-24 02:43 | 32.73460 | -117.19824 | 25 ft | 17 kts | 105° |
| 2026-04-24 02:43 | 32.73424 | -117.19676 | 23 ft | 20 kts | 106° |
| 2026-04-24 02:44 | 32.73385 | -117.19514 | 24 ft | 21 kts | 106° |
| 2026-04-24 02:44 | 32.73341 | -117.19333 | 22 ft | 24 kts | 106° |
| 2026-04-24 02:44 | 32.73292 | -117.19132 | 22 ft | 26 kts | 106° |
| 2026-04-24 02:44 | 32.73242 | -117.18923 | 24 ft | 27 kts | 106° |
| 2026-04-24 02:45 | 32.73189 | -117.18706 | 23 ft | 28 kts | 107° |
| 2026-04-24 02:45 | 32.73137 | -117.18490 | 23 ft | 22 kts | 106° |
| 2026-04-24 02:45 | 32.73093 | -117.18306 | 22 ft | 24 kts | 105° |
| 2026-04-24 02:45 | 32.73044 | -117.18103 | 24 ft | 27 kts | 106° |
| 2026-04-24 02:46 | 32.72994 | -117.17901 | 24 ft | 20 kts | 107° |
| 2026-04-24 02:46 | 32.72963 | -117.17784 | 23 ft | 8 kts | 108° |
| 2026-04-24 02:46 | 32.72959 | -117.17770 | 22 ft | 0 kts | 109° |
| 2026-04-24 02:48 | 32.72957 | -117.17763 | 22 ft | 2 kts | 109° |
| 2026-04-24 02:48 | 32.72950 | -117.17736 | 23 ft | 5 kts | 107° |
| 2026-04-24 02:48 | 32.72952 | -117.17689 | 21 ft | 7 kts | 76° |
| 2026-04-24 02:49 | 32.72973 | -117.17624 | 23 ft | 10 kts | 58° |
| 2026-04-24 02:49 | 32.73026 | -117.17613 | 21 ft | 8 kts | 314° |
| 2026-04-24 02:49 | 32.73040 | -117.17661 | 21 ft | 6 kts | 287° |
| 2026-04-24 02:49 | 32.73086 | -117.17851 | 21 ft | 57 kts | 286° |
| 2026-04-24 02:50 | 32.73257 | -117.18557 | 23 ft | 118 kts | 285° |
| 2026-04-24 02:50 | 32.73527 | -117.19684 | 66 ft | 159 kts | 286° |
| 2026-04-24 02:50 | 32.73827 | -117.20933 | 736 ft | 154 kts | 286° |
| 2026-04-24 02:50 | 32.74122 | -117.22153 | 1387 ft | 154 kts | 286° |
| 2026-04-24 02:51 | 32.74416 | -117.23367 | 1948 ft | 159 kts | 286° |
| 2026-04-24 02:51 | 32.74744 | -117.24713 | 2225 ft | 181 kts | 287° |
| 2026-04-24 02:51 | 32.75117 | -117.26246 | 2499 ft | 205 kts | 287° |
| 2026-04-24 02:51 | 32.75534 | -117.27971 | 2886 ft | 228 kts | 286° |
| 2026-04-24 02:52 | 32.75983 | -117.29828 | 3596 ft | 237 kts | 285° |
| 2026-04-24 02:52 | 32.76434 | -117.31730 | 4465 ft | 241 kts | 282° |
| 2026-04-24 02:52 | 32.76384 | -117.33714 | 5277 ft | 247 kts | 249° |
| 2026-04-24 02:52 | 32.75317 | -117.35299 | 6083 ft | 253 kts | 212° |
| 2026-04-24 02:53 | 32.73612 | -117.35838 | 6900 ft | 262 kts | 177° |
| 2026-04-24 02:53 | 32.71889 | -117.35108 | 7710 ft | 270 kts | 147° |
| 2026-04-24 02:53 | 32.70463 | -117.33639 | 8573 ft | 275 kts | 135° |
| 2026-04-24 02:53 | 32.69172 | -117.31942 | 9416 ft | 279 kts | 133° |
| 2026-04-24 02:54 | 32.67881 | -117.30203 | 10201 ft | 283 kts | 134° |
| 2026-04-24 02:54 | 32.66532 | -117.28485 | 10928 ft | 286 kts | 137° |
| 2026-04-24 02:54 | 32.65119 | -117.26800 | 11655 ft | 290 kts | 138° |
| 2026-04-24 02:54 | 32.63842 | -117.24913 | 12362 ft | 298 kts | 122° |
| 2026-04-24 02:55 | 32.63022 | -117.22609 | 12847 ft | 315 kts | 104° |
| 2026-04-24 02:55 | 32.62698 | -117.19940 | 13045 ft | 339 kts | 96° |
| 2026-04-24 02:55 | 32.62445 | -117.17062 | 13221 ft | 362 kts | 96° |
| 2026-04-24 02:55 | 32.62177 | -117.13996 | 13374 ft | 384 kts | 96° |
| 2026-04-24 02:56 | 32.62183 | -117.10827 | 13827 ft | 394 kts | 82° |
| 2026-04-24 02:56 | 32.62809 | -117.07642 | 14385 ft | 398 kts | 69° |
| 2026-04-24 02:56 | 32.63804 | -117.04559 | 14945 ft | 402 kts | 67° |
| 2026-04-24 02:56 | 32.64820 | -117.01441 | 15519 ft | 406 kts | 67° |
| 2026-04-24 02:57 | 32.65836 | -116.98295 | 16088 ft | 411 kts | 69° |
| 2026-04-24 02:57 | 32.66535 | -116.94988 | 16651 ft | 416 kts | 81° |
| 2026-04-24 02:57 | 32.66739 | -116.91544 | 17227 ft | 421 kts | 89° |
| 2026-04-24 02:57 | 32.66811 | -116.88050 | 17825 ft | 425 kts | 89° |
| 2026-04-24 02:58 | 32.66890 | -116.84522 | 18396 ft | 430 kts | 88° |
| 2026-04-24 02:58 | 32.66974 | -116.80956 | 18907 ft | 435 kts | 88° |
| 2026-04-24 02:58 | 32.67060 | -116.77348 | 19452 ft | 439 kts | 88° |
| 2026-04-24 02:58 | 32.67135 | -116.73709 | 20010 ft | 443 kts | 89° |
| 2026-04-24 02:59 | 32.67138 | -116.70031 | 20546 ft | 448 kts | 91° |
| 2026-04-24 02:59 | 32.67082 | -116.66318 | 21047 ft | 452 kts | 91° |
| 2026-04-24 02:59 | 32.66992 | -116.62572 | 21548 ft | 456 kts | 92° |
| 2026-04-24 02:59 | 32.66893 | -116.58794 | 22026 ft | 460 kts | 92° |
| 2026-04-24 03:00 | 32.66799 | -116.54988 | 22479 ft | 464 kts | 92° |
| 2026-04-24 03:00 | 32.66716 | -116.51132 | 22936 ft | 468 kts | 91° |
| 2026-04-24 03:00 | 32.66644 | -116.47259 | 23366 ft | 471 kts | 91° |
| 2026-04-24 03:00 | 32.66589 | -116.43361 | 23767 ft | 475 kts | 89° |
| 2026-04-24 03:01 | 32.66843 | -116.39442 | 24142 ft | 478 kts | 83° |
| 2026-04-24 03:01 | 32.67211 | -116.35506 | 24503 ft | 481 kts | 83° |
| 2026-04-24 03:01 | 32.67575 | -116.31594 | 24866 ft | 484 kts | 83° |
| 2026-04-24 03:01 | 32.67946 | -116.27619 | 25229 ft | 486 kts | 83° |
| 2026-04-24 03:02 | 32.68314 | -116.23615 | 25577 ft | 488 kts | 83° |
| 2026-04-24 03:02 | 32.68675 | -116.19607 | 25957 ft | 490 kts | 84° |
| 2026-04-24 03:02 | 32.69034 | -116.15562 | 26322 ft | 493 kts | 84° |
| 2026-04-24 03:02 | 32.69390 | -116.11510 | 26653 ft | 495 kts | 84° |
| 2026-04-24 03:03 | 32.69748 | -116.07437 | 27005 ft | 498 kts | 84° |
| 2026-04-24 03:03 | 32.70109 | -116.03338 | 27343 ft | 500 kts | 84° |
| 2026-04-24 03:03 | 32.70475 | -115.99222 | 27643 ft | 503 kts | 84° |
| 2026-04-24 03:03 | 32.70855 | -115.95070 | 27964 ft | 506 kts | 84° |
| 2026-04-24 03:04 | 32.71243 | -115.90906 | 28266 ft | 509 kts | 84° |
| 2026-04-24 03:04 | 32.71637 | -115.86711 | 28554 ft | 512 kts | 84° |
| 2026-04-24 03:04 | 32.72033 | -115.82501 | 28856 ft | 515 kts | 84° |
| 2026-04-24 03:04 | 32.72425 | -115.78258 | 29154 ft | 517 kts | 84° |
| 2026-04-24 03:05 | 32.72805 | -115.74068 | 29582 ft | 516 kts | 84° |
| 2026-04-24 03:05 | 32.73187 | -115.69828 | 30014 ft | 516 kts | 84° |
| 2026-04-24 03:05 | 32.73567 | -115.65586 | 30346 ft | 517 kts | 84° |
| 2026-04-24 03:05 | 32.73948 | -115.61346 | 30672 ft | 518 kts | 84° |
| 2026-04-24 03:06 | 32.74329 | -115.57082 | 30995 ft | 519 kts | 84° |
| 2026-04-24 03:06 | 32.74708 | -115.52813 | 31336 ft | 519 kts | 84° |
| 2026-04-24 03:06 | 32.75042 | -115.48544 | 31680 ft | 520 kts | 86° |
| 2026-04-24 03:06 | 32.75251 | -115.44252 | 32032 ft | 520 kts | 88° |
| 2026-04-24 03:07 | 32.75352 | -115.39945 | 32391 ft | 521 kts | 90° |
| 2026-04-24 03:07 | 32.75389 | -115.35639 | 32736 ft | 522 kts | 91° |
| 2026-04-24 03:07 | 32.75410 | -115.31321 | 32871 ft | 524 kts | 90° |
| 2026-04-24 03:07 | 32.75447 | -115.26975 | 32885 ft | 526 kts | 90° |
| 2026-04-24 03:08 | 32.75718 | -115.13932 | 32884 ft | 527 kts | 89° |
| 2026-04-24 03:09 | 32.75943 | -115.05292 | 32880 ft | 526 kts | 89° |
| 2026-04-24 03:09 | 32.76137 | -114.96592 | 32878 ft | 527 kts | 89° |
| 2026-04-24 03:10 | 32.76307 | -114.87879 | 32879 ft | 528 kts | 89° |
| 2026-04-24 03:10 | 32.76467 | -114.79165 | 32883 ft | 528 kts | 89° |
| 2026-04-24 03:11 | 32.76631 | -114.70442 | 32887 ft | 528 kts | 89° |
| 2026-04-24 03:11 | 32.76788 | -114.61714 | 32889 ft | 528 kts | 90° |
| 2026-04-24 03:12 | 32.76925 | -114.52989 | 32782 ft | 528 kts | 90° |
| 2026-04-24 03:12 | 32.76982 | -114.48624 | 32525 ft | 528 kts | 90° |
| 2026-04-24 03:12 | 32.77037 | -114.44275 | 32270 ft | 528 kts | 90° |
| 2026-04-24 03:12 | 32.77092 | -114.39906 | 32015 ft | 528 kts | 90° |
| 2026-04-24 03:13 | 32.77150 | -114.35547 | 31616 ft | 527 kts | 90° |
| 2026-04-24 03:13 | 32.77208 | -114.31162 | 30365 ft | 536 kts | 90° |
| 2026-04-24 03:13 | 32.77264 | -114.26691 | 28960 ft | 545 kts | 90° |
| 2026-04-24 03:13 | 32.77319 | -114.22199 | 27697 ft | 545 kts | 90° |
| 2026-04-24 03:14 | 32.77372 | -114.17703 | 26891 ft | 537 kts | 90° |
| 2026-04-24 03:14 | 32.77421 | -114.13309 | 26090 ft | 530 kts | 90° |
| 2026-04-24 03:14 | 32.77467 | -114.08947 | 25334 ft | 524 kts | 89° |
| 2026-04-24 03:14 | 32.77739 | -114.04681 | 25034 ft | 509 kts | 82° |
| 2026-04-24 03:15 | 32.78206 | -114.00545 | 24838 ft | 500 kts | 82° |
| 2026-04-24 03:15 | 32.78656 | -113.96471 | 24879 ft | 498 kts | 82° |
| 2026-04-24 03:15 | 32.79102 | -113.92387 | 24876 ft | 497 kts | 82° |
| 2026-04-24 03:15 | 32.79547 | -113.88307 | 24869 ft | 497 kts | 82° |
| 2026-04-24 03:16 | 32.79989 | -113.84232 | 24873 ft | 497 kts | 82° |
| 2026-04-24 03:16 | 32.80428 | -113.80157 | 24873 ft | 497 kts | 82° |
| 2026-04-24 03:16 | 32.80864 | -113.76135 | 24867 ft | 497 kts | 82° |
| 2026-04-24 03:16 | 32.81572 | -113.72150 | 24861 ft | 484 kts | 71° |
| 2026-04-24 03:17 | 32.82784 | -113.68514 | 24863 ft | 464 kts | 60° |
| 2026-04-24 03:17 | 32.84425 | -113.65259 | 24775 ft | 455 kts | 50° |
| 2026-04-24 03:17 | 32.86427 | -113.62375 | 24285 ft | 449 kts | 44° |
| 2026-04-24 03:17 | 32.88493 | -113.59628 | 24022 ft | 444 kts | 44° |
| 2026-04-24 03:18 | 32.90545 | -113.56888 | 23764 ft | 442 kts | 44° |
| 2026-04-24 03:18 | 32.92589 | -113.54149 | 23507 ft | 440 kts | 44° |
| 2026-04-24 03:18 | 32.94618 | -113.51419 | 23240 ft | 438 kts | 44° |
| 2026-04-24 03:18 | 32.96618 | -113.48718 | 22966 ft | 433 kts | 44° |
| 2026-04-24 03:19 | 32.98602 | -113.46033 | 22719 ft | 431 kts | 44° |
| 2026-04-24 03:19 | 33.00580 | -113.43351 | 22463 ft | 428 kts | 44° |
| 2026-04-24 03:19 | 33.02542 | -113.40690 | 22217 ft | 427 kts | 44° |
| 2026-04-24 03:19 | 33.03840 | -113.38931 | 22051 ft | 425 kts | 44° |
| 2026-04-24 03:20 | 33.05790 | -113.36290 | 21802 ft | 424 kts | 44° |
| 2026-04-24 03:20 | 33.07739 | -113.33660 | 21481 ft | 421 kts | 44° |
| 2026-04-24 03:20 | 33.09673 | -113.31054 | 21185 ft | 419 kts | 44° |
| 2026-04-24 03:20 | 33.11605 | -113.28450 | 20874 ft | 417 kts | 44° |
| 2026-04-24 03:21 | 33.13521 | -113.25863 | 20577 ft | 415 kts | 44° |
| 2026-04-24 03:21 | 33.16043 | -113.22447 | 20176 ft | 412 kts | 44° |
| 2026-04-24 03:21 | 33.17324 | -113.20711 | 19973 ft | 411 kts | 44° |
| 2026-04-24 03:21 | 33.19202 | -113.18164 | 19677 ft | 409 kts | 44° |
| 2026-04-24 03:22 | 33.21051 | -113.15651 | 19407 ft | 404 kts | 44° |
| 2026-04-24 03:22 | 33.22874 | -113.13164 | 19218 ft | 393 kts | 44° |
| 2026-04-24 03:22 | 33.24649 | -113.10716 | 18893 ft | 388 kts | 47° |
| 2026-04-24 03:22 | 33.26114 | -113.08011 | 18657 ft | 390 kts | 60° |
| 2026-04-24 03:23 | 33.27105 | -113.04987 | 18431 ft | 391 kts | 73° |
| 2026-04-24 03:23 | 33.27562 | -113.01783 | 18208 ft | 392 kts | 86° |
| 2026-04-24 03:23 | 33.27649 | -112.98537 | 17961 ft | 391 kts | 88° |
| 2026-04-24 03:23 | 33.27727 | -112.95287 | 17700 ft | 389 kts | 88° |
| 2026-04-24 03:24 | 33.27809 | -112.92051 | 17442 ft | 388 kts | 88° |
| 2026-04-24 03:24 | 33.27892 | -112.88836 | 17190 ft | 386 kts | 88° |
| 2026-04-24 03:24 | 33.27973 | -112.85638 | 16938 ft | 383 kts | 88° |
| 2026-04-24 03:24 | 33.28052 | -112.82486 | 16686 ft | 375 kts | 87° |
| 2026-04-24 03:25 | 33.28211 | -112.79411 | 16438 ft | 368 kts | 84° |
| 2026-04-24 03:25 | 33.28468 | -112.76395 | 16194 ft | 362 kts | 83° |
| 2026-04-24 03:25 | 33.28775 | -112.73428 | 15979 ft | 359 kts | 82° |
| 2026-04-24 03:25 | 33.29095 | -112.70476 | 15642 ft | 357 kts | 82° |
| 2026-04-24 03:26 | 33.29404 | -112.67542 | 15296 ft | 355 kts | 82° |
| 2026-04-24 03:26 | 33.29695 | -112.64661 | 14960 ft | 353 kts | 83° |
| 2026-04-24 03:26 | 33.29977 | -112.61748 | 14615 ft | 351 kts | 83° |
| 2026-04-24 03:26 | 33.30249 | -112.58854 | 14276 ft | 350 kts | 83° |
| 2026-04-24 03:27 | 33.30517 | -112.55970 | 13938 ft | 348 kts | 83° |
| 2026-04-24 03:27 | 33.30781 | -112.53096 | 13580 ft | 347 kts | 84° |
| 2026-04-24 03:27 | 33.31042 | -112.50238 | 13222 ft | 344 kts | 84° |
| 2026-04-24 03:27 | 33.31302 | -112.47400 | 12887 ft | 342 kts | 83° |
| 2026-04-24 03:28 | 33.31559 | -112.44587 | 12563 ft | 339 kts | 83° |
| 2026-04-24 03:28 | 33.31813 | -112.41800 | 12238 ft | 336 kts | 83° |
| 2026-04-24 03:28 | 33.32067 | -112.39037 | 11915 ft | 333 kts | 83° |
| 2026-04-24 03:28 | 33.32316 | -112.36288 | 11592 ft | 331 kts | 83° |
| 2026-04-24 03:29 | 33.32566 | -112.33562 | 11270 ft | 329 kts | 83° |
| 2026-04-24 03:29 | 33.32814 | -112.30862 | 10953 ft | 326 kts | 83° |
| 2026-04-24 03:29 | 33.33059 | -112.28177 | 10636 ft | 324 kts | 83° |
| 2026-04-24 03:29 | 33.33301 | -112.25512 | 10321 ft | 321 kts | 83° |
| 2026-04-24 03:30 | 33.33540 | -112.22863 | 10005 ft | 319 kts | 82° |
| 2026-04-24 03:30 | 33.33776 | -112.20234 | 9688 ft | 317 kts | 82° |
| 2026-04-24 03:30 | 33.34008 | -112.17628 | 9393 ft | 313 kts | 82° |
| 2026-04-24 03:30 | 33.34235 | -112.15085 | 9298 ft | 302 kts | 82° |
| 2026-04-24 03:31 | 33.34458 | -112.12622 | 9174 ft | 294 kts | 82° |
| 2026-04-24 03:31 | 33.34676 | -112.10225 | 9048 ft | 286 kts | 82° |
| 2026-04-24 03:31 | 33.34749 | -112.07912 | 8839 ft | 272 kts | 90° |
| 2026-04-24 03:31 | 33.34720 | -112.05681 | 8537 ft | 263 kts | 90° |
| 2026-04-24 03:32 | 33.34692 | -112.03568 | 8268 ft | 253 kts | 90° |
| 2026-04-24 03:32 | 33.34664 | -112.01475 | 8006 ft | 251 kts | 91° |
| 2026-04-24 03:32 | 33.34635 | -111.99398 | 7746 ft | 248 kts | 90° |
| 2026-04-24 03:32 | 33.34609 | -111.97332 | 7331 ft | 251 kts | 90° |
| 2026-04-24 03:33 | 33.34582 | -111.95246 | 7049 ft | 250 kts | 90° |
| 2026-04-24 03:33 | 33.34556 | -111.93177 | 6778 ft | 248 kts | 90° |
| 2026-04-24 03:33 | 33.34574 | -111.91125 | 6482 ft | 244 kts | 88° |
| 2026-04-24 03:33 | 33.34622 | -111.89100 | 5986 ft | 243 kts | 88° |
| 2026-04-24 03:34 | 33.34678 | -111.87084 | 5482 ft | 242 kts | 88° |
| 2026-04-24 03:34 | 33.34734 | -111.85072 | 4969 ft | 242 kts | 88° |
| 2026-04-24 03:34 | 33.34867 | -111.83073 | 4456 ft | 240 kts | 72° |
| 2026-04-24 03:34 | 33.35690 | -111.81414 | 4091 ft | 229 kts | 36° |
| 2026-04-24 03:35 | 33.37109 | -111.80645 | 4257 ft | 231 kts | 9° |
| 2026-04-24 03:35 | 33.38692 | -111.80614 | 4030 ft | 223 kts | 351° |
| 2026-04-24 03:35 | 33.40190 | -111.80799 | 4015 ft | 210 kts | 349° |
| 2026-04-24 03:35 | 33.41588 | -111.80989 | 4046 ft | 197 kts | 349° |
| 2026-04-24 03:36 | 33.42906 | -111.81168 | 4031 ft | 181 kts | 349° |
| 2026-04-24 03:36 | 33.44098 | -111.81354 | 4007 ft | 163 kts | 339° |
| 2026-04-24 03:36 | 33.44915 | -111.82106 | 4014 ft | 145 kts | 292° |
| 2026-04-24 03:36 | 33.45001 | -111.83267 | 4025 ft | 143 kts | 258° |
| 2026-04-24 03:37 | 33.44729 | -111.84435 | 3760 ft | 152 kts | 255° |
| 2026-04-24 03:37 | 33.44462 | -111.85693 | 3402 ft | 159 kts | 257° |
| 2026-04-24 03:37 | 33.44287 | -111.86965 | 3272 ft | 150 kts | 265° |
| 2026-04-24 03:37 | 33.44223 | -111.88229 | 2947 ft | 156 kts | 266° |
| 2026-04-24 03:38 | 33.44156 | -111.89544 | 2709 ft | 157 kts | 265° |
| 2026-04-24 03:38 | 33.44119 | -111.90816 | 2516 ft | 148 kts | 267° |
| 2026-04-24 03:38 | 33.44103 | -111.92023 | 2303 ft | 144 kts | 268° |
| 2026-04-24 03:38 | 33.44076 | -111.93201 | 2130 ft | 141 kts | 267° |
| 2026-04-24 03:39 | 33.44071 | -111.94376 | 1930 ft | 140 kts | 269° |
| 2026-04-24 03:39 | 33.44078 | -111.95550 | 1726 ft | 140 kts | 269° |
| 2026-04-24 03:39 | 33.44072 | -111.96710 | 1535 ft | 141 kts | 268° |
| 2026-04-24 03:39 | 33.44079 | -111.97890 | 1432 ft | 143 kts | 269° |
| 2026-04-24 03:40 | 33.44081 | -111.99071 | 1200 ft | 140 kts | 269° |
| 2026-04-24 03:40 | 33.44083 | -112.00191 | 1131 ft | 119 kts | 269° |
| 2026-04-24 03:40 | 33.44082 | -112.00816 | 1129 ft | 31 kts | 270° |
| 2026-04-24 03:40 | 33.44083 | -112.00974 | 1130 ft | 18 kts | 268° |
| 2026-04-24 03:41 | 33.44047 | -112.01074 | 1134 ft | 8 kts | 220° |
| 2026-04-24 03:41 | 33.44004 | -112.01087 | 1116 ft | 2 kts | 174° |
| 2026-04-24 03:41 | 33.43987 | -112.01079 | 1118 ft | 2 kts | 152° |
| 2026-04-24 03:41 | 33.43979 | -112.01069 | 1119 ft | 0 kts | 129° |
| 2026-04-24 03:42 | 33.43975 | -112.01058 | 1124 ft | 4 kts | 107° |
| 2026-04-24 03:42 | 33.43974 | -112.00988 | 1124 ft | 12 kts | 89° |
| 2026-04-24 03:42 | 33.43974 | -112.00873 | 1120 ft | 15 kts | 89° |
| 2026-04-24 03:43 | 33.43974 | -112.00739 | 1120 ft | 17 kts | 90° |
| 2026-04-24 03:43 | 33.43976 | -112.00586 | 1124 ft | 19 kts | 90° |
| 2026-04-24 03:43 | 33.43974 | -112.00413 | 1123 ft | 22 kts | 90° |
| 2026-04-24 03:43 | 33.43973 | -112.00222 | 1124 ft | 24 kts | 89° |
| 2026-04-24 03:44 | 33.43973 | -112.00016 | 1122 ft | 25 kts | 90° |
| 2026-04-24 03:44 | 33.43972 | -111.99797 | 1128 ft | 27 kts | 90° |
| 2026-04-24 03:44 | 33.43973 | -111.99628 | 1128 ft | 13 kts | 89° |
| 2026-04-24 03:44 | 33.43934 | -111.99553 | 1120 ft | 13 kts | 162° |
| 2026-04-24 03:45 | 33.43891 | -111.99520 | 1123 ft | 7 kts | 109° |
| 2026-04-24 03:45 | 33.43890 | -111.99461 | 1125 ft | 6 kts | 123° |
| 2026-04-24 03:45 | 33.43857 | -111.99458 | 1125 ft | 5 kts | 182° |
| 2026-04-24 03:45 | 33.43841 | -111.99456 | 1120 ft | 0 kts | 174° |